createdAt,value
2019-02-19T00:00:39.711Z,9.21
2019-02-19T00:03:06.967Z,9.05
2019-02-19T00:05:34.219Z,9.05
2019-02-19T00:08:01.472Z,9.00
2019-02-19T00:10:28.716Z,9.05
2019-02-19T00:12:55.958Z,9.03
2019-02-19T00:15:23.271Z,8.98
2019-02-19T00:17:50.543Z,9.15
2019-02-19T00:20:17.779Z,9.13
2019-02-19T00:22:45.039Z,9.06
2019-02-19T00:25:12.249Z,9.08
2019-02-19T00:27:39.487Z,8.94
2019-02-19T00:30:06.871Z,8.94
2019-02-19T00:32:34.156Z,8.94
2019-02-19T00:35:01.451Z,9.01
2019-02-19T00:37:28.779Z,9.09
2019-02-19T00:39:56.030Z,9.07
2019-02-19T00:42:23.290Z,8.95
2019-02-19T00:44:50.533Z,9.00
2019-02-19T00:47:17.805Z,9.02
2019-02-19T00:49:45.071Z,8.91
2019-02-19T00:52:12.288Z,8.94
2019-02-19T00:54:39.550Z,8.91
2019-02-19T00:57:06.822Z,8.83
2019-02-19T00:59:34.054Z,8.88
2019-02-19T01:02:01.326Z,8.86
2019-02-19T01:04:28.558Z,8.92
2019-02-19T01:06:55.846Z,8.86
2019-02-19T01:09:25.408Z,8.66
2019-02-19T01:11:52.632Z,8.83
2019-02-19T01:14:19.934Z,8.86
2019-02-19T01:16:47.148Z,8.86
2019-02-19T01:19:14.408Z,8.72
2019-02-19T01:21:41.685Z,8.72
2019-02-19T01:24:08.916Z,8.68
2019-02-19T01:26:36.189Z,8.65
2019-02-19T01:29:03.441Z,8.63
2019-02-19T01:31:30.679Z,8.76
2019-02-19T01:33:57.939Z,8.72
2019-02-19T01:36:25.243Z,8.70
2019-02-19T01:38:52.469Z,8.72
2019-02-19T01:41:19.729Z,8.70
2019-02-19T01:43:47.007Z,8.63
2019-02-19T01:46:14.257Z,8.62
2019-02-19T01:48:41.507Z,8.60
2019-02-19T01:51:08.765Z,8.64
2019-02-19T01:53:36.007Z,8.69
2019-02-19T01:56:03.228Z,8.62
2019-02-19T01:58:30.492Z,8.63
2019-02-19T02:00:57.719Z,8.60
2019-02-19T02:03:24.939Z,8.64
2019-02-19T02:05:52.294Z,8.51
2019-02-19T02:08:19.534Z,8.51
2019-02-19T02:10:46.816Z,8.50
2019-02-19T02:13:14.090Z,8.50
2019-02-19T02:15:42.875Z,8.52
2019-02-19T02:18:10.284Z,8.44
2019-02-19T02:20:39.242Z,8.50
2019-02-19T02:23:06.493Z,8.39
2019-02-19T02:25:33.732Z,8.34
2019-02-19T02:28:00.980Z,8.37
2019-02-19T02:30:28.246Z,8.27
2019-02-19T02:32:55.489Z,8.32
2019-02-19T02:35:22.993Z,8.35
2019-02-19T02:37:50.258Z,8.20
2019-02-19T02:40:17.477Z,8.19
2019-02-19T02:42:44.698Z,8.24
2019-02-19T02:45:11.996Z,8.24
2019-02-19T02:47:39.209Z,8.28
2019-02-19T02:50:06.655Z,8.28
2019-02-19T02:52:33.910Z,8.19
2019-02-19T02:55:01.150Z,8.22
2019-02-19T02:57:28.398Z,8.15
2019-02-19T02:59:55.619Z,8.23
2019-02-19T03:02:22.863Z,8.20
2019-02-19T03:04:50.146Z,8.37
2019-02-19T03:07:36.283Z,8.37
2019-02-19T03:10:03.948Z,8.16
2019-02-19T03:12:31.367Z,8.05
2019-02-19T03:14:58.929Z,8.09
2019-02-19T03:17:26.223Z,7.98
2019-02-19T03:19:53.441Z,7.91
2019-02-19T03:22:20.765Z,7.91
2019-02-19T03:24:47.995Z,7.77
2019-02-19T03:27:15.305Z,7.88
2019-02-19T03:29:42.519Z,7.95
2019-02-19T03:32:09.800Z,7.95
2019-02-19T03:34:37.289Z,7.95
2019-02-19T03:37:04.612Z,7.96
2019-02-19T03:39:31.869Z,7.88
2019-02-19T03:41:59.214Z,7.88
2019-02-19T03:44:26.450Z,7.89
2019-02-19T03:46:53.699Z,7.68
2019-02-19T03:49:20.945Z,7.77
2019-02-19T03:51:48.153Z,7.76
2019-02-19T03:54:15.417Z,7.78
2019-02-19T03:56:42.648Z,7.78
2019-02-19T03:59:09.951Z,7.77
2019-02-19T04:01:37.220Z,7.65
2019-02-19T04:04:04.439Z,7.55
2019-02-19T04:06:32.450Z,7.64
2019-02-19T04:08:59.833Z,7.76
2019-02-19T04:11:27.128Z,7.72
2019-02-19T04:13:54.338Z,7.68
2019-02-19T04:16:21.673Z,7.67
2019-02-19T04:18:49.425Z,7.62
2019-02-19T04:21:16.660Z,7.47
2019-02-19T04:23:43.966Z,7.47
2019-02-19T04:26:11.156Z,7.56
2019-02-19T04:28:38.406Z,7.52
2019-02-19T04:31:05.658Z,7.44
2019-02-19T04:33:32.871Z,7.50
2019-02-19T04:36:00.199Z,7.42
2019-02-19T04:38:27.449Z,7.54
2019-02-19T04:40:54.668Z,7.33
2019-02-19T04:43:23.952Z,7.46
2019-02-19T04:45:51.233Z,7.34
2019-02-19T04:48:18.442Z,7.42
2019-02-19T04:50:45.724Z,7.34
2019-02-19T04:53:12.947Z,7.34
2019-02-19T04:55:40.162Z,7.36
2019-02-19T04:58:07.410Z,7.36
2019-02-19T05:00:34.636Z,7.32
2019-02-19T05:03:01.846Z,7.23
2019-02-19T05:05:29.105Z,7.25
2019-02-19T05:07:56.312Z,7.16
2019-02-19T05:10:23.540Z,7.14
2019-02-19T05:12:50.797Z,7.14
2019-02-19T05:15:18.007Z,7.05
2019-02-19T05:17:45.226Z,6.98
2019-02-19T05:20:12.485Z,6.97
2019-02-19T05:22:39.703Z,6.97
2019-02-19T05:25:06.987Z,6.97
2019-02-19T05:27:34.233Z,7.04
2019-02-19T05:30:01.478Z,7.02
2019-02-19T05:32:28.680Z,7.01
2019-02-19T05:34:55.933Z,7.14
2019-02-19T05:37:23.277Z,6.93
2019-02-19T05:39:50.477Z,7.06
2019-02-19T05:42:17.718Z,6.97
2019-02-19T05:44:44.940Z,7.04
2019-02-19T05:47:12.202Z,7.00
2019-02-19T05:49:39.418Z,6.97
2019-02-19T05:52:07.078Z,6.96
2019-02-19T05:54:34.340Z,6.93
2019-02-19T05:57:01.558Z,6.96
2019-02-19T05:59:29.037Z,6.90
2019-02-19T06:01:56.285Z,6.85
2019-02-19T06:04:23.507Z,6.89
2019-02-19T06:06:50.716Z,6.86
2019-02-19T06:09:18.000Z,6.79
2019-02-19T06:11:45.216Z,6.67
2019-02-19T06:14:12.432Z,6.76
2019-02-19T06:16:39.679Z,6.76
2019-02-19T06:19:06.899Z,6.88
2019-02-19T06:21:34.109Z,6.92
2019-02-19T06:24:01.364Z,6.84
2019-02-19T06:26:28.603Z,6.75
2019-02-19T06:28:57.833Z,6.71
2019-02-19T06:31:25.033Z,6.87
2019-02-19T06:33:52.304Z,6.87
2019-02-19T06:36:19.551Z,6.76
2019-02-19T06:38:46.767Z,6.87
2019-02-19T06:41:13.986Z,6.85
2019-02-19T06:43:41.255Z,6.76
2019-02-19T06:46:08.497Z,6.80
2019-02-19T06:48:35.740Z,6.81
2019-02-19T06:51:03.025Z,6.83
2019-02-19T06:53:33.418Z,6.85
2019-02-19T06:56:02.030Z,6.76
2019-02-19T06:58:29.356Z,6.83
2019-02-19T07:00:56.555Z,6.74
2019-02-19T07:04:01.495Z,6.79
2019-02-19T07:06:30.603Z,6.74
2019-02-19T07:08:57.834Z,6.74
2019-02-19T07:11:25.089Z,6.79
2019-02-19T07:13:52.333Z,6.90
2019-02-19T07:16:19.555Z,6.88
2019-02-19T07:18:47.193Z,6.95
2019-02-19T07:21:14.755Z,7.10
2019-02-19T07:23:41.984Z,7.10
2019-02-19T07:26:09.237Z,7.03
2019-02-19T07:28:36.452Z,7.17
2019-02-19T07:31:03.699Z,7.18
2019-02-19T07:33:31.007Z,7.13
2019-02-19T07:35:58.474Z,7.07
2019-02-19T07:38:25.733Z,7.07
2019-02-19T07:40:53.028Z,7.14
2019-02-19T07:43:20.245Z,7.19
2019-02-19T07:45:47.469Z,7.13
2019-02-19T07:48:14.745Z,7.15
2019-02-19T07:50:41.957Z,7.17
2019-02-19T07:53:09.211Z,7.30
2019-02-19T07:55:36.457Z,7.30
2019-02-19T07:58:03.688Z,7.30
2019-02-19T08:00:30.942Z,7.31
2019-02-19T08:02:58.173Z,7.30
2019-02-19T08:05:25.438Z,7.31
2019-02-19T08:07:52.675Z,7.34
2019-02-19T08:10:19.968Z,7.42
2019-02-19T08:12:47.520Z,7.42
2019-02-19T08:15:14.727Z,7.44
2019-02-19T08:17:41.988Z,7.38
2019-02-19T08:20:16.032Z,7.41
2019-02-19T08:22:38.655Z,7.53
2019-02-19T08:25:07.023Z,7.57
2019-02-19T08:27:35.089Z,7.57
2019-02-19T08:30:02.423Z,7.57
2019-02-19T08:32:29.699Z,7.63
2019-02-19T08:34:56.969Z,7.59
2019-02-19T08:37:24.305Z,7.62
2019-02-19T08:39:51.574Z,7.62
2019-02-19T08:42:18.821Z,7.84
2019-02-19T08:44:46.034Z,7.89
2019-02-19T08:47:13.288Z,7.89
2019-02-19T08:49:40.556Z,8.02
2019-02-19T08:52:07.783Z,8.02
2019-02-19T08:54:35.027Z,8.10
2019-02-19T08:57:02.301Z,8.30
2019-02-19T08:59:29.540Z,8.43
2019-02-19T09:01:56.807Z,8.47
2019-02-19T09:04:24.090Z,8.58
2019-02-19T09:06:51.407Z,8.58
2019-02-19T09:09:18.658Z,8.58
2019-02-19T09:11:45.907Z,8.62
2019-02-19T09:14:13.156Z,8.63
2019-02-19T09:16:40.371Z,8.74
2019-02-19T09:19:07.607Z,8.71
2019-02-19T09:21:34.866Z,8.69
2019-02-19T09:24:09.190Z,8.80
2019-02-19T09:26:31.645Z,8.83
2019-02-19T09:28:58.923Z,8.90
2019-02-19T09:31:26.200Z,8.79
2019-02-19T09:33:53.413Z,8.92
2019-02-19T09:36:20.868Z,8.92
2019-02-19T09:38:48.125Z,9.06
2019-02-19T09:41:15.373Z,8.93
2019-02-19T09:43:42.670Z,8.90
2019-02-19T09:46:09.930Z,8.93
2019-02-19T09:48:37.171Z,8.83
2019-02-19T09:51:04.425Z,8.90
2019-02-19T09:53:31.707Z,8.89
2019-02-19T09:55:58.938Z,8.93
2019-02-19T09:58:26.187Z,8.94
2019-02-19T10:00:53.450Z,9.04
2019-02-19T10:03:20.806Z,9.13
2019-02-19T10:05:48.235Z,9.14
2019-02-19T10:08:15.569Z,9.28
2019-02-19T10:10:42.823Z,9.27
2019-02-19T10:13:10.058Z,9.27
2019-02-19T10:15:37.379Z,9.34
2019-02-19T10:18:10.363Z,9.28
2019-02-19T10:20:33.748Z,9.23
2019-02-19T10:23:01.014Z,9.14
2019-02-19T10:25:28.257Z,9.06
2019-02-19T10:27:55.508Z,9.02
2019-02-19T10:30:22.749Z,9.05
2019-02-19T10:32:50.012Z,9.15
2019-02-19T10:35:17.288Z,9.22
2019-02-19T10:37:45.156Z,9.26
2019-02-19T10:40:14.437Z,9.25
2019-02-19T10:42:41.704Z,9.20
2019-02-19T10:45:11.377Z,9.20
2019-02-19T10:47:38.620Z,9.23
2019-02-19T10:50:06.606Z,9.23
2019-02-19T10:52:33.858Z,9.21
2019-02-19T10:55:01.154Z,9.27
2019-02-19T10:57:28.419Z,9.33
2019-02-19T10:59:55.659Z,9.33
2019-02-19T11:02:22.955Z,9.33
2019-02-19T11:04:50.165Z,9.27
2019-02-19T11:07:17.413Z,9.21
2019-02-19T11:09:44.687Z,9.24
2019-02-19T11:12:11.900Z,9.27
2019-02-19T11:14:39.148Z,9.20
2019-02-19T11:17:06.354Z,9.20
2019-02-19T11:19:33.695Z,9.27
2019-02-19T11:22:01.044Z,9.27
2019-02-19T11:24:28.352Z,9.31
2019-02-19T11:26:55.570Z,9.09
2019-02-19T11:29:25.693Z,9.13
2019-02-19T11:31:53.025Z,9.36
2019-02-19T11:34:21.137Z,9.35
2019-02-19T11:36:48.510Z,9.31
2019-02-19T11:39:15.842Z,9.21
2019-02-19T11:41:43.258Z,9.21
2019-02-19T11:44:11.161Z,9.21
2019-02-19T11:46:38.607Z,9.32
2019-02-19T11:49:05.820Z,9.32
2019-02-19T11:51:33.087Z,9.28
2019-02-19T11:54:00.327Z,9.27
2019-02-19T11:56:27.634Z,9.16
2019-02-19T11:58:54.864Z,9.25
2019-02-19T12:01:22.305Z,9.33
2019-02-19T12:03:49.544Z,9.33
2019-02-19T12:06:16.789Z,9.19
2019-02-19T12:08:44.040Z,9.28
2019-02-19T12:11:11.402Z,9.23
2019-02-19T12:13:38.659Z,9.28
2019-02-19T12:16:06.283Z,9.32
2019-02-19T12:18:33.604Z,9.48
2019-02-19T12:21:00.857Z,9.48
2019-02-19T12:23:28.108Z,9.37
2019-02-19T12:25:55.354Z,9.37
2019-02-19T12:28:22.618Z,9.55
2019-02-19T12:30:49.848Z,9.55
2019-02-19T12:33:17.093Z,9.51
2019-02-19T12:35:44.365Z,9.60
2019-02-19T12:38:11.717Z,9.64
2019-02-19T12:40:38.981Z,9.47
2019-02-19T12:43:06.240Z,9.47
2019-02-19T12:45:33.481Z,9.62
2019-02-19T12:48:00.739Z,9.61
2019-02-19T12:50:28.320Z,9.56
2019-02-19T12:52:55.545Z,9.56
2019-02-19T12:55:22.881Z,9.52
2019-02-19T12:57:50.109Z,9.63
2019-02-19T13:00:17.452Z,9.51
2019-02-19T13:02:44.726Z,9.58
2019-02-19T13:05:12.258Z,9.54
2019-02-19T13:07:39.663Z,9.46
2019-02-19T13:10:07.700Z,9.64
2019-02-19T13:12:34.950Z,9.68
2019-02-19T13:15:02.299Z,9.67
2019-02-19T13:17:29.554Z,9.62
2019-02-19T13:19:56.774Z,9.58
2019-02-19T13:22:24.049Z,9.57
2019-02-19T13:24:51.285Z,9.58
2019-02-19T13:27:18.509Z,9.52
2019-02-19T13:29:45.816Z,9.53
2019-02-19T13:32:13.034Z,9.63
2019-02-19T13:34:40.287Z,9.77
2019-02-19T13:37:07.555Z,9.75
2019-02-19T13:39:34.881Z,9.67
2019-02-19T13:42:02.105Z,9.69
2019-02-19T13:44:29.426Z,9.77
2019-02-19T13:46:56.715Z,9.88
2019-02-19T13:49:23.951Z,9.88
2019-02-19T13:51:53.171Z,9.75
2019-02-19T13:54:36.689Z,9.73
2019-02-19T13:57:04.069Z,9.76
2019-02-19T13:59:31.312Z,9.69
2019-02-19T14:01:58.582Z,9.80
2019-02-19T14:04:25.846Z,9.71
2019-02-19T14:06:53.092Z,9.71
2019-02-19T14:09:20.351Z,9.73
2019-02-19T14:11:47.629Z,9.80
2019-02-19T14:14:49.644Z,9.76
2019-02-19T14:17:19.411Z,9.76
2019-02-19T14:19:56.645Z,9.79
2019-02-19T14:22:41.953Z,9.77
2019-02-19T14:25:34.496Z,9.85
2019-02-19T14:28:20.350Z,9.74
2019-02-19T14:31:02.662Z,9.68
2019-02-19T14:33:49.458Z,9.74
2019-02-19T14:36:38.859Z,9.87
2019-02-19T14:39:24.829Z,9.83
2019-02-19T14:42:08.833Z,9.76
2019-02-19T14:44:55.145Z,9.73
2019-02-19T14:47:46.113Z,9.80
2019-02-19T14:50:24.197Z,9.80
2019-02-19T14:53:13.881Z,9.75
2019-02-19T14:56:09.661Z,9.73
2019-02-19T14:58:55.171Z,9.72
2019-02-19T15:01:40.073Z,9.62
2019-02-19T15:04:26.884Z,9.63
2019-02-19T15:07:13.526Z,9.60
2019-02-19T15:10:03.204Z,9.57
2019-02-19T15:13:01.798Z,9.58
2019-02-19T15:15:48.711Z,9.66
2019-02-19T15:18:34.485Z,9.64
2019-02-19T15:21:27.186Z,9.71
2019-02-19T15:24:12.672Z,9.71
2019-02-19T15:26:58.111Z,9.50
2019-02-19T15:29:44.898Z,9.48
2019-02-19T15:32:40.773Z,9.48
2019-02-19T15:35:26.301Z,9.52
2019-02-19T15:38:18.993Z,9.52
2019-02-19T15:41:11.417Z,9.43
2019-02-19T15:44:00.821Z,9.61
2019-02-19T15:46:53.567Z,9.57
2019-02-19T15:49:32.331Z,9.57
2019-02-19T15:52:20.501Z,9.56
2019-02-19T15:55:10.226Z,9.66
2019-02-19T15:58:04.814Z,9.55
2019-02-19T16:00:46.295Z,9.58
2019-02-19T16:03:33.110Z,9.44
2019-02-19T16:06:32.234Z,9.40
2019-02-19T16:09:10.210Z,9.21
2019-02-19T16:11:45.627Z,9.31
2019-02-19T16:14:47.297Z,9.31
2019-02-19T16:17:52.051Z,9.31
2019-02-19T16:20:41.435Z,9.15
2019-02-19T16:23:15.683Z,9.13
2019-02-19T16:26:05.208Z,9.21
2019-02-19T16:28:55.332Z,9.13
2019-02-19T16:31:51.068Z,9.19
2019-02-19T16:34:37.898Z,9.17
2019-02-19T16:37:13.587Z,9.16
2019-02-19T16:39:57.172Z,9.16
2019-02-19T16:42:43.754Z,9.02
2019-02-19T16:45:45.731Z,9.13
2019-02-19T16:48:35.408Z,9.12
2019-02-19T16:51:21.537Z,9.10
2019-02-19T16:54:03.545Z,9.09
2019-02-19T16:56:43.168Z,9.07
2019-02-19T16:59:19.574Z,9.08
2019-02-19T17:02:09.502Z,9.08
2019-02-19T17:04:56.432Z,9.14
2019-02-19T17:07:42.661Z,9.01
2019-02-19T17:10:32.101Z,8.96
2019-02-19T17:13:23.993Z,8.96
2019-02-19T17:16:06.735Z,9.09
2019-02-19T17:19:11.509Z,9.00
2019-02-19T17:21:45.013Z,9.01
2019-02-19T17:24:37.492Z,9.01
2019-02-19T17:27:24.280Z,9.07
2019-02-19T17:30:07.799Z,9.09
2019-02-19T17:32:51.522Z,9.09
2019-02-19T17:35:35.918Z,8.99
2019-02-19T17:38:14.738Z,8.93
2019-02-19T17:41:01.020Z,8.93
2019-02-19T17:43:42.726Z,8.87
2019-02-19T17:46:47.809Z,8.86
2019-02-19T17:49:37.657Z,8.86
2019-02-19T17:52:18.101Z,8.91
2019-02-19T17:54:58.324Z,8.87
2019-02-19T17:57:44.067Z,8.87
2019-02-19T18:00:29.779Z,8.89
2019-02-19T18:03:17.233Z,8.76
2019-02-19T18:06:02.913Z,8.82
2019-02-19T18:08:49.753Z,8.82
2019-02-19T18:11:35.535Z,8.78
2019-02-19T18:14:28.482Z,8.78
2019-02-19T18:17:08.798Z,8.79
2019-02-19T18:19:36.177Z,8.93
2019-02-19T18:22:03.435Z,8.95
2019-02-19T18:24:30.683Z,8.99
2019-02-19T18:26:57.904Z,8.90
2019-02-19T18:29:25.227Z,8.82
2019-02-19T18:31:52.502Z,8.85
2019-02-19T18:34:19.719Z,8.85
2019-02-19T18:36:46.962Z,8.90
2019-02-19T18:39:14.211Z,9.06
2019-02-19T18:41:41.494Z,9.06
2019-02-19T18:44:08.758Z,8.94
2019-02-19T18:46:36.024Z,8.94
2019-02-19T18:49:03.265Z,8.99
2019-02-19T18:51:30.523Z,8.99
2019-02-19T18:53:58.317Z,9.06
2019-02-19T18:56:25.553Z,9.08
2019-02-19T18:58:52.825Z,9.08
2019-02-19T19:01:20.033Z,9.04
2019-02-19T19:03:47.278Z,9.13
2019-02-19T19:06:14.582Z,9.05
2019-02-19T19:08:41.808Z,9.05
2019-02-19T19:11:09.028Z,8.97
2019-02-19T19:13:36.324Z,8.87
2019-02-19T19:16:03.658Z,8.87
2019-02-19T19:18:30.915Z,8.91
2019-02-19T19:20:58.142Z,8.81
2019-02-19T19:23:25.429Z,8.88
2019-02-19T19:25:53.837Z,8.99
2019-02-19T19:28:21.082Z,8.88
2019-02-19T19:30:48.304Z,8.89
2019-02-19T19:33:15.576Z,8.89
2019-02-19T19:35:42.803Z,8.90
2019-02-19T19:38:10.058Z,8.92
2019-02-19T19:40:37.332Z,8.84
2019-02-19T19:43:04.572Z,8.84
2019-02-19T19:45:31.792Z,8.83
2019-02-19T19:47:59.013Z,8.83
2019-02-19T19:50:26.273Z,8.91
2019-02-19T19:52:53.490Z,8.73
2019-02-19T19:55:27.438Z,8.73
2019-02-19T19:57:54.689Z,8.82
2019-02-19T20:00:21.949Z,8.82
2019-02-19T20:02:49.167Z,8.78
2019-02-19T20:05:16.439Z,8.92
2019-02-19T20:07:43.683Z,8.82
2019-02-19T20:10:10.982Z,8.86
2019-02-19T20:12:38.296Z,9.01
2019-02-19T20:15:06.448Z,9.01
2019-02-19T20:17:33.653Z,9.04
2019-02-19T20:20:00.880Z,8.88
2019-02-19T20:22:28.157Z,8.90
2019-02-19T20:24:55.397Z,8.80
2019-02-19T20:27:22.737Z,8.81
2019-02-19T20:29:49.966Z,8.81
2019-02-19T20:32:17.191Z,8.91
2019-02-19T20:34:44.458Z,8.80
2019-02-19T20:37:11.686Z,8.87
2019-02-19T20:39:38.952Z,8.85
2019-02-19T20:42:06.222Z,8.73
2019-02-19T20:44:33.435Z,8.53
2019-02-19T20:47:00.692Z,8.47
2019-02-19T20:49:27.932Z,8.59
2019-02-19T20:51:55.151Z,8.55
2019-02-19T20:54:22.448Z,8.43
2019-02-19T20:56:49.725Z,8.47
2019-02-19T20:59:16.958Z,8.47
2019-02-19T21:01:44.200Z,8.40
2019-02-19T21:04:11.435Z,8.44
2019-02-19T21:06:38.662Z,8.43
2019-02-19T21:09:06.256Z,8.43
2019-02-19T21:11:33.475Z,8.22
2019-02-19T21:14:02.993Z,8.22
2019-02-19T21:16:30.305Z,8.20
2019-02-19T21:18:57.536Z,8.21
2019-02-19T21:21:24.740Z,8.13
2019-02-19T21:23:52.026Z,8.07
2019-02-19T21:26:19.299Z,7.91
2019-02-19T21:28:46.637Z,8.00
2019-02-19T21:31:13.853Z,7.90
2019-02-19T21:33:41.101Z,8.04
2019-02-19T21:36:08.378Z,7.96
2019-02-19T21:38:35.576Z,7.96
2019-02-19T21:41:02.836Z,7.95
2019-02-19T21:43:30.132Z,7.95
2019-02-19T21:45:57.510Z,8.03
2019-02-19T21:48:24.772Z,7.95
2019-02-19T21:50:52.056Z,7.84
2019-02-19T21:53:19.985Z,7.84
2019-02-19T21:55:47.215Z,7.89
2019-02-19T21:58:14.522Z,7.99
2019-02-19T22:00:42.161Z,7.95
2019-02-19T22:03:09.376Z,8.00
2019-02-19T22:05:36.637Z,8.07
2019-02-19T22:08:03.903Z,7.92
2019-02-19T22:10:31.121Z,7.97
2019-02-19T22:12:58.339Z,8.00
2019-02-19T22:15:25.594Z,8.00
2019-02-19T22:17:52.825Z,8.00
2019-02-19T22:20:54.843Z,7.86
2019-02-19T22:23:22.102Z,7.96
2019-02-19T22:25:49.327Z,7.90
2019-02-19T22:28:16.581Z,7.87
2019-02-19T22:30:43.829Z,7.88
2019-02-19T22:33:11.106Z,7.85
2019-02-19T22:35:38.379Z,7.87
2019-02-19T22:38:05.586Z,8.02
2019-02-19T22:40:32.833Z,8.06
2019-02-19T22:43:00.069Z,8.14
2019-02-19T22:45:27.281Z,8.12
2019-02-19T22:47:54.534Z,7.99
2019-02-19T22:50:21.752Z,8.01
2019-02-19T22:52:48.965Z,7.98
2019-02-19T22:55:23.635Z,7.96
2019-02-19T22:57:50.855Z,7.93
2019-02-19T23:00:36.574Z,7.97
2019-02-19T23:03:04.408Z,8.07
2019-02-19T23:05:32.026Z,7.98
2019-02-19T23:07:59.275Z,7.93
2019-02-19T23:10:26.492Z,8.05
2019-02-19T23:12:54.064Z,8.05
2019-02-19T23:15:21.291Z,8.06
2019-02-19T23:17:48.539Z,7.91
2019-02-19T23:20:15.807Z,7.78
2019-02-19T23:22:43.045Z,7.92
2019-02-19T23:25:09.958Z,7.92
2019-02-19T23:27:37.207Z,7.76
2019-02-19T23:30:05.218Z,7.77
2019-02-19T23:32:32.433Z,7.94
2019-02-19T23:35:22.185Z,8.00
2019-02-19T23:37:49.423Z,7.88
2019-02-19T23:40:16.646Z,7.85
2019-02-19T23:42:43.924Z,7.85
2019-02-19T23:45:11.307Z,7.82
2019-02-19T23:47:38.522Z,7.79
2019-02-19T23:50:05.779Z,7.80
2019-02-19T23:52:32.998Z,7.83
2019-02-19T23:55:00.297Z,7.85
2019-02-19T23:57:27.486Z,7.77
2019-02-19T23:59:54.718Z,7.85
